sensor_id;sensor_type;location;lat;lon;timestamp;temperature;humidity
16060;DHT22;8134;49.552;7.632;2023-08-31T00:01:11;15.40;99.90
16060;DHT22;8134;49.552;7.632;2023-08-31T00:03:36;15.40;99.90
16060;DHT22;8134;49.552;7.632;2023-08-31T00:06:02;15.30;99.90
16060;DHT22;8134;49.552;7.632;2023-08-31T00:08:29;15.30;99.90
16060;DHT22;8134;49.552;7.632;2023-08-31T00:10:58;15.20;99.90
16060;DHT22;8134;49.552;7.632;2023-08-31T00:13:24;15.20;99.90
16060;DHT22;8134;49.552;7.632;2023-08-31T00:15:49;15.10;99.90
16060;DHT22;8134;49.552;7.632;2023-08-31T00:18:15;15.10;99.90
16060;DHT22;8134;49.552;7.632;2023-08-31T00:20:42;15.00;99.90
16060;DHT22;8134;49.552;7.632;2023-08-31T00:23:08;15.00;99.90
16060;DHT22;8134;49.552;7.632;2023-08-31T00:25:34;14.80;99.90
16060;DHT22;8134;49.552;7.632;2023-08-31T00:27:59;14.80;99.90
16060;DHT22;8134;49.552;7.632;2023-08-31T00:30:30;14.90;99.90
16060;DHT22;8134;49.552;7.632;2023-08-31T00:32:57;14.80;99.90
16060;DHT22;8134;49.552;7.632;2023-08-31T00:35:25;14.80;99.90
16060;DHT22;8134;49.552;7.632;2023-08-31T00:37:51;14.80;99.90
16060;DHT22;8134;49.552;7.632;2023-08-31T00:40:17;14.80;99.90
16060;DHT22;8134;49.552;7.632;2023-08-31T00:42:43;14.70;99.90
16060;DHT22;8134;49.552;7.632;2023-08-31T00:45:09;14.70;99.90
16060;DHT22;8134;49.552;7.632;2023-08-31T00:47:35;14.70;99.90
16060;DHT22;8134;49.552;7.632;2023-08-31T00:50:01;14.60;99.90
16060;DHT22;8134;49.552;7.632;2023-08-31T00:52:27;14.60;99.90
16060;DHT22;8134;49.552;7.632;2023-08-31T00:54:52;14.50;99.90
16060;DHT22;8134;49.552;7.632;2023-08-31T00:57:18;14.50;99.90
16060;DHT22;8134;49.552;7.632;2023-08-31T00:59:43;14.40;99.90
16060;DHT22;8134;49.552;7.632;2023-08-31T01:02:17;14.50;99.90
16060;DHT22;8134;49.552;7.632;2023-08-31T01:05:49;14.50;99.90
16060;DHT22;8134;49.552;7.632;2023-08-31T01:10:47;14.50;99.90
16060;DHT22;8134;49.552;7.632;2023-08-31T01:13:19;14.60;99.90
16060;DHT22;8134;49.552;7.632;2023-08-31T01:15:49;14.50;99.90
16060;DHT22;8134;49.552;7.632;2023-08-31T01:18:17;14.50;99.90
16060;DHT22;8134;49.552;7.632;2023-08-31T01:20:49;14.50;99.90
16060;DHT22;8134;49.552;7.632;2023-08-31T01:23:20;14.50;99.90
16060;DHT22;8134;49.552;7.632;2023-08-31T01:25:48;14.40;99.90
16060;DHT22;8134;49.552;7.632;2023-08-31T01:28:14;14.40;99.90
16060;DHT22;8134;49.552;7.632;2023-08-31T01:30:40;14.50;99.90
16060;DHT22;8134;49.552;7.632;2023-08-31T01:33:06;14.40;99.90
16060;DHT22;8134;49.552;7.632;2023-08-31T01:35:33;14.40;99.90
16060;DHT22;8134;49.552;7.632;2023-08-31T01:38:01;14.30;99.90
16060;DHT22;8134;49.552;7.632;2023-08-31T01:40:34;14.30;99.90
16060;DHT22;8134;49.552;7.632;2023-08-31T01:43:01;14.20;99.90
16060;DHT22;8134;49.552;7.632;2023-08-31T01:45:26;14.30;99.90
16060;DHT22;8134;49.552;7.632;2023-08-31T01:47:52;14.20;99.90
16060;DHT22;8134;49.552;7.632;2023-08-31T01:50:18;14.20;99.90
16060;DHT22;8134;49.552;7.632;2023-08-31T01:52:44;14.20;99.90
16060;DHT22;8134;49.552;7.632;2023-08-31T01:55:09;14.30;99.90
16060;DHT22;8134;49.552;7.632;2023-08-31T01:57:35;14.20;99.90
16060;DHT22;8134;49.552;7.632;2023-08-31T02:00:00;14.30;99.90
16060;DHT22;8134;49.552;7.632;2023-08-31T02:02:26;14.30;99.90
16060;DHT22;8134;49.552;7.632;2023-08-31T02:04:51;14.30;99.90
16060;DHT22;8134;49.552;7.632;2023-08-31T02:07:17;14.30;99.90
16060;DHT22;8134;49.552;7.632;2023-08-31T02:09:43;14.40;99.90
16060;DHT22;8134;49.552;7.632;2023-08-31T02:12:08;14.40;99.90
16060;DHT22;8134;49.552;7.632;2023-08-31T02:14:36;14.50;99.90
16060;DHT22;8134;49.552;7.632;2023-08-31T02:17:03;14.40;99.90
16060;DHT22;8134;49.552;7.632;2023-08-31T02:19:28;14.30;99.90
16060;DHT22;8134;49.552;7.632;2023-08-31T02:21:54;14.30;99.90
16060;DHT22;8134;49.552;7.632;2023-08-31T02:24:19;14.20;99.90
16060;DHT22;8134;49.552;7.632;2023-08-31T02:26:45;14.20;99.90
16060;DHT22;8134;49.552;7.632;2023-08-31T02:29:10;14.30;99.90
16060;DHT22;8134;49.552;7.632;2023-08-31T02:31:36;14.20;99.90
16060;DHT22;8134;49.552;7.632;2023-08-31T02:34:03;14.20;99.90
16060;DHT22;8134;49.552;7.632;2023-08-31T02:36:29;14.20;99.90
16060;DHT22;8134;49.552;7.632;2023-08-31T02:38:55;14.20;99.90
16060;DHT22;8134;49.552;7.632;2023-08-31T02:41:21;14.10;99.90
16060;DHT22;8134;49.552;7.632;2023-08-31T02:43:46;14.10;99.90
16060;DHT22;8134;49.552;7.632;2023-08-31T02:46:12;14.10;99.90
16060;DHT22;8134;49.552;7.632;2023-08-31T02:48:37;14.00;99.90
16060;DHT22;8134;49.552;7.632;2023-08-31T02:51:03;13.90;99.90
16060;DHT22;8134;49.552;7.632;2023-08-31T02:53:30;14.00;99.90
16060;DHT22;8134;49.552;7.632;2023-08-31T02:55:56;13.90;99.90
16060;DHT22;8134;49.552;7.632;2023-08-31T02:58:21;14.00;99.90
16060;DHT22;8134;49.552;7.632;2023-08-31T03:00:47;14.00;99.90
16060;DHT22;8134;49.552;7.632;2023-08-31T03:03:14;14.00;99.90
16060;DHT22;8134;49.552;7.632;2023-08-31T03:05:39;13.90;99.90
16060;DHT22;8134;49.552;7.632;2023-08-31T03:08:05;13.90;99.90
16060;DHT22;8134;49.552;7.632;2023-08-31T03:10:31;14.00;99.90
16060;DHT22;8134;49.552;7.632;2023-08-31T03:12:56;13.90;99.90
16060;DHT22;8134;49.552;7.632;2023-08-31T03:15:21;13.90;99.90
16060;DHT22;8134;49.552;7.632;2023-08-31T03:17:49;13.80;99.90
16060;DHT22;8134;49.552;7.632;2023-08-31T03:20:15;13.80;99.90
16060;DHT22;8134;49.552;7.632;2023-08-31T03:22:41;13.80;99.90
16060;DHT22;8134;49.552;7.632;2023-08-31T03:25:06;13.80;99.90
16060;DHT22;8134;49.552;7.632;2023-08-31T03:27:32;13.80;99.90
16060;DHT22;8134;49.552;7.632;2023-08-31T03:29:57;13.70;99.90
16060;DHT22;8134;49.552;7.632;2023-08-31T03:32:23;13.80;99.90
16060;DHT22;8134;49.552;7.632;2023-08-31T03:34:48;13.80;99.90
16060;DHT22;8134;49.552;7.632;2023-08-31T03:37:15;13.70;99.90
16060;DHT22;8134;49.552;7.632;2023-08-31T03:39:40;13.80;99.90
16060;DHT22;8134;49.552;7.632;2023-08-31T03:42:09;13.70;99.90
16060;DHT22;8134;49.552;7.632;2023-08-31T03:44:35;13.70;99.90
16060;DHT22;8134;49.552;7.632;2023-08-31T03:47:01;13.70;99.90
16060;DHT22;8134;49.552;7.632;2023-08-31T03:49:26;13.70;99.90
16060;DHT22;8134;49.552;7.632;2023-08-31T03:51:52;13.60;99.90
16060;DHT22;8134;49.552;7.632;2023-08-31T03:54:21;13.70;99.90
16060;DHT22;8134;49.552;7.632;2023-08-31T03:56:47;13.50;99.90
16060;DHT22;8134;49.552;7.632;2023-08-31T03:59:12;13.60;99.90
16060;DHT22;8134;49.552;7.632;2023-08-31T04:01:38;13.60;99.90
16060;DHT22;8134;49.552;7.632;2023-08-31T04:04:06;13.60;99.90
16060;DHT22;8134;49.552;7.632;2023-08-31T04:06:32;13.50;99.90
16060;DHT22;8134;49.552;7.632;2023-08-31T04:08:57;13.50;99.90
16060;DHT22;8134;49.552;7.632;2023-08-31T04:11:25;13.50;99.90
16060;DHT22;8134;49.552;7.632;2023-08-31T04:13:51;13.40;99.90
16060;DHT22;8134;49.552;7.632;2023-08-31T04:16:17;13.40;99.90
16060;DHT22;8134;49.552;7.632;2023-08-31T04:18:42;13.40;99.90
16060;DHT22;8134;49.552;7.632;2023-08-31T04:21:08;13.40;99.90
16060;DHT22;8134;49.552;7.632;2023-08-31T04:23:34;13.40;99.90
16060;DHT22;8134;49.552;7.632;2023-08-31T04:25:59;13.40;99.90
16060;DHT22;8134;49.552;7.632;2023-08-31T04:28:25;13.40;99.90
16060;DHT22;8134;49.552;7.632;2023-08-31T04:30:51;13.40;99.90
16060;DHT22;8134;49.552;7.632;2023-08-31T04:33:19;13.40;99.90
16060;DHT22;8134;49.552;7.632;2023-08-31T04:35:45;13.30;99.90
16060;DHT22;8134;49.552;7.632;2023-08-31T04:38:10;13.30;99.90
16060;DHT22;8134;49.552;7.632;2023-08-31T04:40:36;13.20;99.90
16060;DHT22;8134;49.552;7.632;2023-08-31T04:43:04;13.20;99.90
16060;DHT22;8134;49.552;7.632;2023-08-31T04:45:30;13.10;99.90
16060;DHT22;8134;49.552;7.632;2023-08-31T04:47:56;13.10;99.90
16060;DHT22;8134;49.552;7.632;2023-08-31T04:50:21;13.10;99.90
16060;DHT22;8134;49.552;7.632;2023-08-31T04:52:47;13.10;99.90
16060;DHT22;8134;49.552;7.632;2023-08-31T04:55:15;13.10;99.90
16060;DHT22;8134;49.552;7.632;2023-08-31T04:57:41;13.00;99.90
16060;DHT22;8134;49.552;7.632;2023-08-31T05:00:06;13.00;99.90
16060;DHT22;8134;49.552;7.632;2023-08-31T05:02:37;13.00;99.90
16060;DHT22;8134;49.552;7.632;2023-08-31T05:05:05;13.00;99.90
16060;DHT22;8134;49.552;7.632;2023-08-31T05:07:33;13.00;99.90
16060;DHT22;8134;49.552;7.632;2023-08-31T05:10:01;13.00;99.90
16060;DHT22;8134;49.552;7.632;2023-08-31T05:12:27;13.00;99.90
16060;DHT22;8134;49.552;7.632;2023-08-31T05:14:55;13.00;99.90
16060;DHT22;8134;49.552;7.632;2023-08-31T05:17:21;12.90;99.90
16060;DHT22;8134;49.552;7.632;2023-08-31T05:19:46;12.90;99.90
16060;DHT22;8134;49.552;7.632;2023-08-31T05:22:12;13.00;99.90
16060;DHT22;8134;49.552;7.632;2023-08-31T05:24:38;13.00;99.90
16060;DHT22;8134;49.552;7.632;2023-08-31T05:27:03;13.00;99.90
16060;DHT22;8134;49.552;7.632;2023-08-31T05:29:29;13.00;99.90
16060;DHT22;8134;49.552;7.632;2023-08-31T05:31:55;13.00;99.90
16060;DHT22;8134;49.552;7.632;2023-08-31T05:34:21;13.00;99.90
16060;DHT22;8134;49.552;7.632;2023-08-31T05:36:46;13.00;99.90
16060;DHT22;8134;49.552;7.632;2023-08-31T05:39:12;13.00;99.90
16060;DHT22;8134;49.552;7.632;2023-08-31T05:41:40;13.00;99.90
16060;DHT22;8134;49.552;7.632;2023-08-31T05:44:05;13.10;99.90
16060;DHT22;8134;49.552;7.632;2023-08-31T05:46:31;13.10;99.90
16060;DHT22;8134;49.552;7.632;2023-08-31T05:48:56;13.20;99.90
16060;DHT22;8134;49.552;7.632;2023-08-31T05:51:22;13.30;99.90
16060;DHT22;8134;49.552;7.632;2023-08-31T05:53:48;13.30;99.90
16060;DHT22;8134;49.552;7.632;2023-08-31T05:56:13;13.30;99.90
16060;DHT22;8134;49.552;7.632;2023-08-31T05:58:39;13.30;99.90
16060;DHT22;8134;49.552;7.632;2023-08-31T06:01:04;13.30;99.90
16060;DHT22;8134;49.552;7.632;2023-08-31T06:03:30;13.30;99.90
16060;DHT22;8134;49.552;7.632;2023-08-31T06:06:00;13.40;99.90
16060;DHT22;8134;49.552;7.632;2023-08-31T06:08:28;13.30;99.90
16060;DHT22;8134;49.552;7.632;2023-08-31T06:10:55;13.30;99.90
16060;DHT22;8134;49.552;7.632;2023-08-31T06:13:20;13.40;99.90
16060;DHT22;8134;49.552;7.632;2023-08-31T06:15:46;13.50;99.90
16060;DHT22;8134;49.552;7.632;2023-08-31T06:18:14;13.50;99.90
16060;DHT22;8134;49.552;7.632;2023-08-31T06:20:40;13.60;99.90
16060;DHT22;8134;49.552;7.632;2023-08-31T06:23:05;13.70;99.90
16060;DHT22;8134;49.552;7.632;2023-08-31T06:25:33;13.80;99.90
16060;DHT22;8134;49.552;7.632;2023-08-31T06:27:59;13.80;99.90
16060;DHT22;8134;49.552;7.632;2023-08-31T06:30:25;13.80;99.90
16060;DHT22;8134;49.552;7.632;2023-08-31T06:32:50;13.80;99.90
16060;DHT22;8134;49.552;7.632;2023-08-31T06:35:16;13.70;99.90
16060;DHT22;8134;49.552;7.632;2023-08-31T06:37:47;13.70;99.90
16060;DHT22;8134;49.552;7.632;2023-08-31T06:40:12;13.70;99.90
16060;DHT22;8134;49.552;7.632;2023-08-31T06:42:38;13.70;99.90
16060;DHT22;8134;49.552;7.632;2023-08-31T06:45:05;13.70;99.90
16060;DHT22;8134;49.552;7.632;2023-08-31T06:47:31;13.70;99.90
16060;DHT22;8134;49.552;7.632;2023-08-31T06:49:56;13.80;99.90
16060;DHT22;8134;49.552;7.632;2023-08-31T06:52:23;13.80;99.90
16060;DHT22;8134;49.552;7.632;2023-08-31T06:54:49;13.80;99.90
16060;DHT22;8134;49.552;7.632;2023-08-31T06:57:15;13.80;99.90
16060;DHT22;8134;49.552;7.632;2023-08-31T06:59:43;13.80;99.90
16060;DHT22;8134;49.552;7.632;2023-08-31T07:02:10;13.80;99.90
16060;DHT22;8134;49.552;7.632;2023-08-31T07:04:35;13.80;99.90
16060;DHT22;8134;49.552;7.632;2023-08-31T07:07:01;13.80;99.90
16060;DHT22;8134;49.552;7.632;2023-08-31T07:09:26;13.80;99.90
16060;DHT22;8134;49.552;7.632;2023-08-31T07:11:52;13.80;99.90
16060;DHT22;8134;49.552;7.632;2023-08-31T07:14:17;13.70;99.90
16060;DHT22;8134;49.552;7.632;2023-08-31T07:16:43;13.80;99.90
16060;DHT22;8134;49.552;7.632;2023-08-31T07:19:11;13.70;99.90
16060;DHT22;8134;49.552;7.632;2023-08-31T07:21:37;13.80;99.90
16060;DHT22;8134;49.552;7.632;2023-08-31T07:27:31;13.90;99.90
16060;DHT22;8134;49.552;7.632;2023-08-31T07:33:43;14.00;99.90
16060;DHT22;8134;49.552;7.632;2023-08-31T07:39:54;14.20;99.90
16060;DHT22;8134;49.552;7.632;2023-08-31T07:42:20;14.30;99.90
16060;DHT22;8134;49.552;7.632;2023-08-31T07:44:48;14.30;99.90
16060;DHT22;8134;49.552;7.632;2023-08-31T07:47:34;14.30;99.90
16060;DHT22;8134;49.552;7.632;2023-08-31T07:49:59;14.40;99.90
16060;DHT22;8134;49.552;7.632;2023-08-31T07:52:25;14.40;99.90
16060;DHT22;8134;49.552;7.632;2023-08-31T07:54:50;14.50;99.90
16060;DHT22;8134;49.552;7.632;2023-08-31T07:57:16;14.50;99.90
16060;DHT22;8134;49.552;7.632;2023-08-31T07:59:41;14.50;99.90
16060;DHT22;8134;49.552;7.632;2023-08-31T08:02:07;14.50;99.90
16060;DHT22;8134;49.552;7.632;2023-08-31T08:04:32;14.60;99.90
16060;DHT22;8134;49.552;7.632;2023-08-31T08:06:58;14.60;99.90
16060;DHT22;8134;49.552;7.632;2023-08-31T08:09:23;14.70;99.90
16060;DHT22;8134;49.552;7.632;2023-08-31T08:11:49;14.80;99.90
16060;DHT22;8134;49.552;7.632;2023-08-31T08:14:14;14.80;99.90
16060;DHT22;8134;49.552;7.632;2023-08-31T08:16:41;14.90;99.90
16060;DHT22;8134;49.552;7.632;2023-08-31T08:19:07;15.00;99.90
16060;DHT22;8134;49.552;7.632;2023-08-31T08:21:33;15.10;99.90
16060;DHT22;8134;49.552;7.632;2023-08-31T08:23:58;15.10;99.90
16060;DHT22;8134;49.552;7.632;2023-08-31T08:26:24;15.20;99.90
16060;DHT22;8134;49.552;7.632;2023-08-31T08:28:49;15.20;99.90
16060;DHT22;8134;49.552;7.632;2023-08-31T08:31:15;15.30;99.90
16060;DHT22;8134;49.552;7.632;2023-08-31T08:33:40;15.30;99.90
16060;DHT22;8134;49.552;7.632;2023-08-31T08:36:06;15.40;99.90
16060;DHT22;8134;49.552;7.632;2023-08-31T08:38:31;15.40;99.90
16060;DHT22;8134;49.552;7.632;2023-08-31T08:40:57;15.50;99.90
16060;DHT22;8134;49.552;7.632;2023-08-31T08:43:25;15.60;99.90
16060;DHT22;8134;49.552;7.632;2023-08-31T08:45:52;15.60;99.90
16060;DHT22;8134;49.552;7.632;2023-08-31T08:48:21;15.60;99.90
16060;DHT22;8134;49.552;7.632;2023-08-31T08:50:47;15.70;99.90
16060;DHT22;8134;49.552;7.632;2023-08-31T08:53:14;15.70;99.90
16060;DHT22;8134;49.552;7.632;2023-08-31T08:55:43;15.70;99.90
16060;DHT22;8134;49.552;7.632;2023-08-31T08:58:08;15.70;99.90
16060;DHT22;8134;49.552;7.632;2023-08-31T09:00:35;15.80;99.90
16060;DHT22;8134;49.552;7.632;2023-08-31T09:03:01;15.80;99.90
16060;DHT22;8134;49.552;7.632;2023-08-31T09:05:32;15.90;99.90
16060;DHT22;8134;49.552;7.632;2023-08-31T09:08:04;15.90;99.90
16060;DHT22;8134;49.552;7.632;2023-08-31T09:10:34;15.90;99.90
16060;DHT22;8134;49.552;7.632;2023-08-31T09:13:00;16.00;99.90
16060;DHT22;8134;49.552;7.632;2023-08-31T09:15:35;16.00;99.90
16060;DHT22;8134;49.552;7.632;2023-08-31T09:18:00;16.10;99.90
16060;DHT22;8134;49.552;7.632;2023-08-31T09:20:26;16.10;99.90
16060;DHT22;8134;49.552;7.632;2023-08-31T09:22:52;16.10;99.90
16060;DHT22;8134;49.552;7.632;2023-08-31T09:25:21;16.20;99.90
16060;DHT22;8134;49.552;7.632;2023-08-31T09:27:46;16.20;99.90
16060;DHT22;8134;49.552;7.632;2023-08-31T09:30:12;16.30;99.90
16060;DHT22;8134;49.552;7.632;2023-08-31T09:32:38;16.30;99.90
16060;DHT22;8134;49.552;7.632;2023-08-31T09:35:07;16.30;99.90
16060;DHT22;8134;49.552;7.632;2023-08-31T09:37:33;16.40;99.90
16060;DHT22;8134;49.552;7.632;2023-08-31T09:40:03;16.40;99.90
16060;DHT22;8134;49.552;7.632;2023-08-31T09:42:38;16.50;99.90
16060;DHT22;8134;49.552;7.632;2023-08-31T09:45:04;16.50;99.90
16060;DHT22;8134;49.552;7.632;2023-08-31T09:47:29;16.50;99.90
16060;DHT22;8134;49.552;7.632;2023-08-31T09:49:55;16.60;99.90
16060;DHT22;8134;49.552;7.632;2023-08-31T09:52:21;16.70;99.90
16060;DHT22;8134;49.552;7.632;2023-08-31T09:54:48;16.70;99.90
16060;DHT22;8134;49.552;7.632;2023-08-31T09:57:15;16.80;99.90
16060;DHT22;8134;49.552;7.632;2023-08-31T09:59:43;16.80;99.90
16060;DHT22;8134;49.552;7.632;2023-08-31T10:02:10;16.90;99.90
16060;DHT22;8134;49.552;7.632;2023-08-31T10:04:36;17.00;99.90
16060;DHT22;8134;49.552;7.632;2023-08-31T10:07:02;17.10;99.90
16060;DHT22;8134;49.552;7.632;2023-08-31T10:09:28;17.00;99.90
16060;DHT22;8134;49.552;7.632;2023-08-31T10:11:54;17.10;99.90
16060;DHT22;8134;49.552;7.632;2023-08-31T10:14:20;17.20;99.90
16060;DHT22;8134;49.552;7.632;2023-08-31T10:16:46;17.30;99.90
16060;DHT22;8134;49.552;7.632;2023-08-31T10:19:15;17.40;99.90
16060;DHT22;8134;49.552;7.632;2023-08-31T10:21:40;17.50;99.90
16060;DHT22;8134;49.552;7.632;2023-08-31T10:24:06;17.50;99.90
16060;DHT22;8134;49.552;7.632;2023-08-31T10:29:38;17.70;99.90
16060;DHT22;8134;49.552;7.632;2023-08-31T10:32:19;17.80;99.90
16060;DHT22;8134;49.552;7.632;2023-08-31T10:35:07;17.90;99.90
16060;DHT22;8134;49.552;7.632;2023-08-31T10:37:33;18.00;99.90
16060;DHT22;8134;49.552;7.632;2023-08-31T10:40:09;18.00;99.90
16060;DHT22;8134;49.552;7.632;2023-08-31T10:42:43;18.10;99.90
16060;DHT22;8134;49.552;7.632;2023-08-31T10:45:09;18.20;99.90
16060;DHT22;8134;49.552;7.632;2023-08-31T10:47:38;18.30;99.90
16060;DHT22;8134;49.552;7.632;2023-08-31T10:50:21;18.40;99.90
16060;DHT22;8134;49.552;7.632;2023-08-31T10:52:47;18.30;99.90
16060;DHT22;8134;49.552;7.632;2023-08-31T10:55:12;18.20;99.90
16060;DHT22;8134;49.552;7.632;2023-08-31T10:57:39;18.20;99.90
16060;DHT22;8134;49.552;7.632;2023-08-31T11:00:06;18.10;99.90
16060;DHT22;8134;49.552;7.632;2023-08-31T11:05:22;18.00;99.90
16060;DHT22;8134;49.552;7.632;2023-08-31T11:07:56;18.00;99.90
16060;DHT22;8134;49.552;7.632;2023-08-31T11:10:23;18.00;99.90
16060;DHT22;8134;49.552;7.632;2023-08-31T11:12:50;18.10;99.90
16060;DHT22;8134;49.552;7.632;2023-08-31T11:18:09;18.10;99.90
16060;DHT22;8134;49.552;7.632;2023-08-31T11:20:35;18.20;99.90
16060;DHT22;8134;49.552;7.632;2023-08-31T11:23:01;18.20;99.90
16060;DHT22;8134;49.552;7.632;2023-08-31T11:25:30;18.10;99.90
16060;DHT22;8134;49.552;7.632;2023-08-31T11:27:56;18.10;99.90
16060;DHT22;8134;49.552;7.632;2023-08-31T11:30:22;18.10;99.90
16060;DHT22;8134;49.552;7.632;2023-08-31T11:32:49;18.20;99.90
16060;DHT22;8134;49.552;7.632;2023-08-31T11:35:15;18.30;99.90
16060;DHT22;8134;49.552;7.632;2023-08-31T11:37:42;18.50;99.90
16060;DHT22;8134;49.552;7.632;2023-08-31T11:40:08;18.50;99.90
16060;DHT22;8134;49.552;7.632;2023-08-31T11:42:34;18.60;99.90
16060;DHT22;8134;49.552;7.632;2023-08-31T11:44:59;18.70;99.90
16060;DHT22;8134;49.552;7.632;2023-08-31T11:47:25;18.90;99.90
16060;DHT22;8134;49.552;7.632;2023-08-31T11:49:51;19.00;99.90
16060;DHT22;8134;49.552;7.632;2023-08-31T11:52:17;19.00;99.90
16060;DHT22;8134;49.552;7.632;2023-08-31T11:54:42;18.90;99.90
16060;DHT22;8134;49.552;7.632;2023-08-31T11:57:11;18.70;99.90
16060;DHT22;8134;49.552;7.632;2023-08-31T11:59:37;18.70;99.90
16060;DHT22;8134;49.552;7.632;2023-08-31T12:02:06;18.70;99.90
16060;DHT22;8134;49.552;7.632;2023-08-31T12:04:42;18.80;99.90
16060;DHT22;8134;49.552;7.632;2023-08-31T12:07:09;18.80;99.90
16060;DHT22;8134;49.552;7.632;2023-08-31T12:09:34;18.90;99.90
16060;DHT22;8134;49.552;7.632;2023-08-31T12:12:00;19.00;99.90
16060;DHT22;8134;49.552;7.632;2023-08-31T12:14:26;19.10;99.90
16060;DHT22;8134;49.552;7.632;2023-08-31T12:16:52;19.20;99.90
16060;DHT22;8134;49.552;7.632;2023-08-31T12:19:18;19.30;99.90
16060;DHT22;8134;49.552;7.632;2023-08-31T12:21:45;19.40;99.90
16060;DHT22;8134;49.552;7.632;2023-08-31T12:24:11;19.40;99.90
16060;DHT22;8134;49.552;7.632;2023-08-31T12:26:37;19.40;99.90
16060;DHT22;8134;49.552;7.632;2023-08-31T12:29:03;19.40;99.90
16060;DHT22;8134;49.552;7.632;2023-08-31T12:31:32;19.30;99.90
16060;DHT22;8134;49.552;7.632;2023-08-31T12:33:58;19.30;99.90
16060;DHT22;8134;49.552;7.632;2023-08-31T12:36:25;19.20;99.90
16060;DHT22;8134;49.552;7.632;2023-08-31T12:38:50;19.10;99.90
16060;DHT22;8134;49.552;7.632;2023-08-31T12:41:16;19.10;99.90
16060;DHT22;8134;49.552;7.632;2023-08-31T12:43:42;19.10;99.90
16060;DHT22;8134;49.552;7.632;2023-08-31T12:46:08;19.10;99.90
16060;DHT22;8134;49.552;7.632;2023-08-31T12:48:35;19.10;99.90
16060;DHT22;8134;49.552;7.632;2023-08-31T12:51:00;19.10;99.90
16060;DHT22;8134;49.552;7.632;2023-08-31T12:53:26;19.00;99.90
16060;DHT22;8134;49.552;7.632;2023-08-31T12:55:52;19.00;99.90
16060;DHT22;8134;49.552;7.632;2023-08-31T12:58:17;19.00;99.90
16060;DHT22;8134;49.552;7.632;2023-08-31T13:00:43;19.00;99.90
16060;DHT22;8134;49.552;7.632;2023-08-31T13:03:10;19.00;99.90
16060;DHT22;8134;49.552;7.632;2023-08-31T13:05:39;19.00;99.90
16060;DHT22;8134;49.552;7.632;2023-08-31T13:08:05;19.10;99.90
16060;DHT22;8134;49.552;7.632;2023-08-31T13:10:31;19.20;99.90
16060;DHT22;8134;49.552;7.632;2023-08-31T13:12:57;19.30;99.90
16060;DHT22;8134;49.552;7.632;2023-08-31T13:15:22;19.40;99.90
16060;DHT22;8134;49.552;7.632;2023-08-31T13:17:48;19.40;99.90
16060;DHT22;8134;49.552;7.632;2023-08-31T13:20:13;19.40;99.90
16060;DHT22;8134;49.552;7.632;2023-08-31T13:22:39;19.40;99.90
16060;DHT22;8134;49.552;7.632;2023-08-31T13:25:04;19.40;99.90
16060;DHT22;8134;49.552;7.632;2023-08-31T13:27:30;19.40;99.90
16060;DHT22;8134;49.552;7.632;2023-08-31T13:29:58;19.40;99.90
16060;DHT22;8134;49.552;7.632;2023-08-31T13:32:24;19.50;99.90
16060;DHT22;8134;49.552;7.632;2023-08-31T13:34:49;19.50;99.90
16060;DHT22;8134;49.552;7.632;2023-08-31T13:37:15;19.50;99.90
16060;DHT22;8134;49.552;7.632;2023-08-31T13:39:41;19.60;99.90
16060;DHT22;8134;49.552;7.632;2023-08-31T13:42:06;19.70;99.90
16060;DHT22;8134;49.552;7.632;2023-08-31T13:44:32;19.90;99.90
16060;DHT22;8134;49.552;7.632;2023-08-31T13:46:57;20.10;99.90
16060;DHT22;8134;49.552;7.632;2023-08-31T13:49:23;20.20;99.90
16060;DHT22;8134;49.552;7.632;2023-08-31T13:51:49;20.30;99.90
16060;DHT22;8134;49.552;7.632;2023-08-31T13:54:17;20.20;99.90
16060;DHT22;8134;49.552;7.632;2023-08-31T13:56:42;20.10;99.90
16060;DHT22;8134;49.552;7.632;2023-08-31T13:59:09;20.20;99.90
16060;DHT22;8134;49.552;7.632;2023-08-31T14:01:34;20.20;99.90
16060;DHT22;8134;49.552;7.632;2023-08-31T14:04:01;20.30;99.90
16060;DHT22;8134;49.552;7.632;2023-08-31T14:06:26;20.20;99.90
16060;DHT22;8134;49.552;7.632;2023-08-31T14:08:52;20.20;99.90
16060;DHT22;8134;49.552;7.632;2023-08-31T14:11:17;20.10;99.90
16060;DHT22;8134;49.552;7.632;2023-08-31T14:13:43;20.10;99.90
16060;DHT22;8134;49.552;7.632;2023-08-31T14:16:08;20.20;99.90
16060;DHT22;8134;49.552;7.632;2023-08-31T14:18:34;20.20;99.90
16060;DHT22;8134;49.552;7.632;2023-08-31T14:21:00;20.30;99.90
16060;DHT22;8134;49.552;7.632;2023-08-31T14:23:26;20.20;99.90
16060;DHT22;8134;49.552;7.632;2023-08-31T14:25:52;20.20;99.90
16060;DHT22;8134;49.552;7.632;2023-08-31T14:28:17;20.20;99.90
16060;DHT22;8134;49.552;7.632;2023-08-31T14:30:43;20.20;99.90
16060;DHT22;8134;49.552;7.632;2023-08-31T14:33:08;20.30;99.90
16060;DHT22;8134;49.552;7.632;2023-08-31T14:35:37;20.60;99.90
16060;DHT22;8134;49.552;7.632;2023-08-31T14:38:03;20.70;99.90
16060;DHT22;8134;49.552;7.632;2023-08-31T14:40:28;20.70;99.90
16060;DHT22;8134;49.552;7.632;2023-08-31T14:42:54;20.70;99.90
16060;DHT22;8134;49.552;7.632;2023-08-31T14:45:19;20.70;99.90
16060;DHT22;8134;49.552;7.632;2023-08-31T14:47:45;20.90;99.90
16060;DHT22;8134;49.552;7.632;2023-08-31T14:50:10;21.00;99.90
16060;DHT22;8134;49.552;7.632;2023-08-31T14:52:36;21.00;99.90
16060;DHT22;8134;49.552;7.632;2023-08-31T14:55:02;20.90;99.90
16060;DHT22;8134;49.552;7.632;2023-08-31T14:57:29;20.70;99.90
16060;DHT22;8134;49.552;7.632;2023-08-31T14:59:54;20.70;99.90
16060;DHT22;8134;49.552;7.632;2023-08-31T15:02:23;20.60;99.90
16060;DHT22;8134;49.552;7.632;2023-08-31T15:04:49;20.60;99.90
16060;DHT22;8134;49.552;7.632;2023-08-31T15:07:15;20.50;99.90
16060;DHT22;8134;49.552;7.632;2023-08-31T15:09:41;20.50;99.90
16060;DHT22;8134;49.552;7.632;2023-08-31T15:12:07;20.40;99.90
16060;DHT22;8134;49.552;7.632;2023-08-31T15:14:33;20.40;99.90
16060;DHT22;8134;49.552;7.632;2023-08-31T15:16:58;20.30;99.90
16060;DHT22;8134;49.552;7.632;2023-08-31T15:19:24;20.30;99.90
16060;DHT22;8134;49.552;7.632;2023-08-31T15:21:49;20.20;99.90
16060;DHT22;8134;49.552;7.632;2023-08-31T15:24:15;20.10;99.90
16060;DHT22;8134;49.552;7.632;2023-08-31T15:26:40;20.00;99.90
16060;DHT22;8134;49.552;7.632;2023-08-31T15:29:06;19.90;99.90
16060;DHT22;8134;49.552;7.632;2023-08-31T15:31:31;19.90;99.90
16060;DHT22;8134;49.552;7.632;2023-08-31T15:33:57;19.80;99.90
16060;DHT22;8134;49.552;7.632;2023-08-31T15:36:23;19.80;99.90
16060;DHT22;8134;49.552;7.632;2023-08-31T15:38:48;19.80;99.90
16060;DHT22;8134;49.552;7.632;2023-08-31T15:41:14;19.80;99.90
16060;DHT22;8134;49.552;7.632;2023-08-31T15:43:40;19.70;99.90
16060;DHT22;8134;49.552;7.632;2023-08-31T15:46:06;19.70;99.90
16060;DHT22;8134;49.552;7.632;2023-08-31T15:48:32;19.70;99.90
16060;DHT22;8134;49.552;7.632;2023-08-31T15:50:58;19.70;99.90
16060;DHT22;8134;49.552;7.632;2023-08-31T15:53:24;19.60;99.90
16060;DHT22;8134;49.552;7.632;2023-08-31T15:55:50;19.60;99.90
16060;DHT22;8134;49.552;7.632;2023-08-31T15:58:16;19.60;99.90
16060;DHT22;8134;49.552;7.632;2023-08-31T16:00:41;19.50;99.90
16060;DHT22;8134;49.552;7.632;2023-08-31T16:03:07;19.40;99.90